Time;durP1;ratioP1;P1;durP2;ratioP2;P2;SDS_P1;SDS_P2;PMS_P1;PMS_P2;Temp;Humidity;BMP_temperature;BMP_pressure;BME280_temperature;BME280_humidity;BME280_pressure;Samples;Min_cycle;Max_cycle;Signal;HPM_P1;HPM_P2
2023/06/06 00:01:40;;;;;;;5.32;2.60;;;;;;;15.34;100.00;100910.75;4915257;29;20024;-69
2023/06/06 00:04:06;;;;;;;7.20;2.60;;;;;;;15.45;100.00;100908.38;4897606;29;20044;-68
2023/06/06 00:06:35;;;;;;;6.85;2.72;;;;;;;15.46;100.00;100915.34;4914990;29;20035;-68
2023/06/06 00:09:01;;;;;;;6.22;2.58;;;;;;;15.29;100.00;100886.31;4915184;29;20032;-68
2023/06/06 00:11:28;;;;;;;5.18;2.53;;;;;;;15.36;100.00;100903.84;4915221;29;20111;-70
2023/06/06 00:13:56;;;;;;;6.63;2.28;;;;;;;15.25;100.00;100889.69;4915154;29;20394;-70
2023/06/06 00:16:23;;;;;;;4.90;2.42;;;;;;;15.30;100.00;100915.00;4898280;29;20111;-68
2023/06/06 00:18:50;;;;;;;7.65;2.30;;;;;;;15.16;100.00;100908.56;4898517;29;20032;-69
2023/06/06 00:21:16;;;;;;;7.72;2.60;;;;;;;15.10;100.00;100922.28;4914961;29;20091;-69
2023/06/06 00:23:45;;;;;;;4.75;1.88;;;;;;;15.05;100.00;100913.47;4915369;29;20036;-68
2023/06/06 00:26:10;;;;;;;5.90;2.20;;;;;;;14.86;100.00;100902.59;4915207;29;20050;-69
2023/06/06 00:28:36;;;;;;;5.28;2.38;;;;;;;14.86;100.00;100917.31;4915038;29;20604;-68
2023/06/06 00:31:01;;;;;;;6.88;2.88;;;;;;;14.46;100.00;100853.88;4915013;29;20028;-67
2023/06/06 00:33:26;;;;;;;6.28;2.45;;;;;;;14.71;100.00;100913.47;4915163;29;20024;-67
2023/06/06 00:35:52;;;;;;;7.70;2.72;;;;;;;14.75;100.00;100916.16;4914661;29;20040;-67
2023/06/06 00:38:17;;;;;;;4.55;2.42;;;;;;;14.66;100.00;100890.81;4915001;29;20410;-75
2023/06/06 00:40:43;;;;;;;8.13;2.70;;;;;;;14.42;100.00;100841.59;4897578;29;20514;-67
2023/06/06 00:43:08;;;;;;;9.85;2.95;;;;;;;14.80;100.00;100912.81;4914712;29;20020;-67
2023/06/06 00:45:33;;;;;;;7.60;3.10;;;;;;;14.74;100.00;100912.66;4914995;29;20036;-66
2023/06/06 00:47:59;;;;;;;6.35;2.83;;;;;;;14.61;100.00;100910.56;4914800;29;20031;-69
2023/06/06 00:50:25;;;;;;;10.55;3.30;;;;;;;14.56;100.00;100908.69;4914360;29;20043;-66
2023/06/06 00:52:52;;;;;;;6.90;3.25;;;;;;;14.52;100.00;100893.00;4914455;29;20036;-67
2023/06/06 00:58:42;;;;;;;8.52;2.70;;;;;;;14.73;100.00;100913.53;5000469;23;20123;-68
2023/06/06 01:01:10;;;;;;;9.57;2.90;;;;;;;14.39;100.00;100838.13;4913986;29;20056;-72
2023/06/06 01:03:36;;;;;;;8.73;2.97;;;;;;;14.85;100.00;100913.84;4913768;29;20083;-66
2023/06/06 01:06:01;;;;;;;7.10;3.15;;;;;;;14.85;100.00;100910.34;4914247;29;20024;-70
2023/06/06 01:08:27;;;;;;;7.57;2.85;;;;;;;14.82;100.00;100907.69;4914588;29;20032;-68
2023/06/06 01:11:06;;;;;;;10.02;3.17;;;;;;;14.45;100.00;100836.50;4914622;29;20054;-66
2023/06/06 01:13:42;;;;;;;6.30;2.85;;;;;;;14.72;100.00;100902.22;4914666;29;20059;-69
2023/06/06 01:16:16;;;;;;;7.93;3.03;;;;;;;14.78;100.00;100918.81;4914221;29;20039;-66
2023/06/06 01:18:42;;;;;;;6.68;2.50;;;;;;;14.40;100.00;100852.88;4914096;29;20388;-71
2023/06/06 01:21:08;;;;;;;6.60;3.00;;;;;;;14.78;100.00;100913.63;4914318;29;20035;-66
2023/06/06 01:23:36;;;;;;;8.52;2.70;;;;;;;14.30;100.00;100848.22;4913877;29;20028;-66
2023/06/06 01:26:05;;;;;;;7.35;2.70;;;;;;;14.75;100.00;100913.56;4901829;29;20021;-68
2023/06/06 01:28:31;;;;;;;9.82;2.95;;;;;;;14.81;100.00;100909.41;4913872;29;20438;-69
2023/06/06 01:30:57;;;;;;;6.60;3.10;;;;;;;14.80;100.00;100904.16;4914415;29;20033;-68
2023/06/06 01:33:39;;;;;;;6.38;2.92;;;;;;;14.91;100.00;100917.47;4914002;29;20083;-67
2023/06/06 01:36:14;;;;;;;8.57;3.17;;;;;;;14.80;100.00;100914.56;4913929;29;20465;-68
2023/06/06 01:38:53;;;;;;;8.00;2.83;;;;;;;14.71;100.00;100905.66;4914248;29;20036;-69
2023/06/06 01:41:20;;;;;;;11.43;3.40;;;;;;;14.56;100.00;100913.88;4914225;29;20028;-66
2023/06/06 01:43:48;;;;;;;8.52;3.22;;;;;;;14.19;100.00;100839.25;4914104;29;20036;-66
2023/06/06 01:46:14;;;;;;;8.77;3.25;;;;;;;14.64;100.00;100911.53;4914093;29;20032;-68
2023/06/06 01:48:40;;;;;;;9.35;3.10;;;;;;;14.21;100.00;100837.59;4913587;29;20032;-67
2023/06/06 01:51:06;;;;;;;5.15;2.88;;;;;;;14.17;100.00;100828.84;4914287;29;20035;-67
2023/06/06 01:53:32;;;;;;;8.45;2.60;;;;;;;14.54;100.00;100914.69;4914106;29;20040;-66
2023/06/06 01:55:57;;;;;;;12.43;3.45;;;;;;;14.50;100.00;100911.13;4913642;29;20028;-71
2023/06/06 01:58:23;;;;;;;6.72;3.08;;;;;;;14.36;100.00;100910.75;4913834;29;20055;-67
2023/06/06 02:00:48;;;;;;;12.07;3.58;;;;;;;14.14;100.00;100888.47;4913788;29;20485;-67
2023/06/06 02:03:14;;;;;;;9.45;3.05;;;;;;;13.88;100.00;100853.94;4913262;29;20038;-68
2023/06/06 02:05:39;;;;;;;6.68;3.13;;;;;;;14.26;100.00;100924.31;4896594;29;20060;-75
2023/06/06 02:08:05;;;;;;;5.63;3.20;;;;;;;14.18;100.00;100925.78;4913589;29;20034;-72
2023/06/06 02:10:31;;;;;;;10.02;3.30;;;;;;;14.10;100.00;100932.47;4913733;29;20017;-67
2023/06/06 02:12:56;;;;;;;9.90;3.13;;;;;;;13.80;100.00;100884.00;4916933;29;20032;-67
2023/06/06 02:15:26;;;;;;;9.40;3.38;;;;;;;13.81;100.00;100898.75;4916940;29;20032;-70
2023/06/06 02:17:52;;;;;;;;;;;;;;;14.12;100.00;100931.69;4917926;29;20028;-72
2023/06/06 02:20:17;;;;;;;11.93;3.33;;;;;;;14.08;100.00;100932.41;4917295;29;20046;-68
2023/06/06 02:22:43;;;;;;;11.90;3.20;;;;;;;13.91;100.00;100926.72;4917146;29;20111;-70
2023/06/06 02:25:09;;;;;;;7.53;3.25;;;;;;;13.94;100.00;100920.75;4917146;29;20426;-65
2023/06/06 02:27:35;;;;;;;5.97;2.95;;;;;;;13.99;100.00;100937.34;4917271;29;20028;-65
2023/06/06 02:30:03;;;;;;;6.60;3.08;;;;;;;13.79;100.00;100901.28;4917048;29;20028;-67
2023/06/06 02:32:30;;;;;;;5.50;3.05;;;;;;;13.99;100.00;100938.22;4917314;29;20039;-65
2023/06/06 02:34:57;;;;;;;8.20;2.88;;;;;;;13.81;100.00;100928.16;4911959;29;20474;-68
2023/06/06 02:37:23;;;;;;;9.52;3.33;;;;;;;13.71;100.00;100945.16;4893064;29;20388;-65
2023/06/06 02:39:48;;;;;;;9.65;2.95;;;;;;;13.74;100.00;100934.88;4917328;29;20084;-68
2023/06/06 02:42:14;;;;;;;9.93;3.47;;;;;;;13.84;100.00;100929.97;4917024;29;20036;-67
2023/06/06 02:44:39;;;;;;;9.27;3.20;;;;;;;13.89;100.00;100942.25;4916992;29;20047;-69
2023/06/06 02:47:05;;;;;;;9.25;3.75;;;;;;;13.93;100.00;100940.63;4916526;29;20028;-68
2023/06/06 02:49:30;;;;;;;8.00;3.08;;;;;;;13.84;100.00;100919.59;4916721;29;20032;-67
2023/06/06 02:51:56;;;;;;;13.57;3.40;;;;;;;13.69;100.00;100900.09;4917053;29;20028;-68
2023/06/06 02:54:22;;;;;;;7.35;2.85;;;;;;;13.85;100.00;100947.31;4916888;29;20029;-65
2023/06/06 02:56:47;;;;;;;8.02;3.22;;;;;;;13.81;100.00;100948.91;4916659;29;20063;-68
2023/06/06 02:59:13;;;;;;;5.40;2.70;;;;;;;13.78;100.00;100945.34;4916893;29;20056;-68
2023/06/06 03:01:42;;;;;;;5.78;2.67;;;;;;;13.39;100.00;100892.25;4915989;29;20570;-67
2023/06/06 03:04:11;;;;;;;7.72;2.53;;;;;;;13.68;100.00;100947.66;4899438;29;20115;-65
2023/06/06 03:06:36;;;;;;;7.07;2.83;;;;;;;13.80;100.00;100941.09;4916508;29;20036;-66
2023/06/06 03:09:04;;;;;;;9.20;2.92;;;;;;;13.90;100.00;100950.91;4916629;29;20028;-66
2023/06/06 03:11:30;;;;;;;7.30;2.50;;;;;;;13.80;100.00;100923.78;4916124;29;20035;-66
2023/06/06 03:13:56;;;;;;;6.35;2.67;;;;;;;13.87;100.00;100943.06;4916163;29;20027;-69
2023/06/06 03:16:25;;;;;;;7.47;3.33;;;;;;;13.80;100.00;100925.53;4882798;29;20051;-68
2023/06/06 03:18:52;;;;;;;5.57;2.60;;;;;;;13.88;100.00;100944.78;4916294;29;20028;-70
2023/06/06 03:21:18;;;;;;;7.43;2.65;;;;;;;13.83;100.00;100946.38;4916567;29;20028;-68
2023/06/06 03:23:44;;;;;;;7.75;2.80;;;;;;;13.10;100.00;100815.25;4915023;29;20033;-69
2023/06/06 03:26:09;;;;;;;8.48;2.97;;;;;;;13.93;100.00;100947.53;4916617;29;20032;-70
2023/06/06 03:28:35;;;;;;;10.43;3.08;;;;;;;14.05;100.00;100951.38;4916471;29;20024;-68
2023/06/06 03:31:05;;;;;;;6.22;3.17;;;;;;;13.30;100.00;100815.00;4916804;29;20024;-69
2023/06/06 03:33:32;;;;;;;5.57;2.45;;;;;;;14.01;100.00;100941.75;4916282;29;20035;-74
2023/06/06 03:35:58;;;;;;;4.80;2.50;;;;;;;13.62;100.00;100867.03;4914911;29;20035;-71
2023/06/06 03:38:24;;;;;;;7.65;2.88;;;;;;;14.07;100.00;100941.94;4918693;29;20040;-68
2023/06/06 03:40:49;;;;;;;5.13;2.92;;;;;;;13.71;100.00;100866.44;4915207;29;20422;-70
2023/06/06 03:43:15;;;;;;;7.28;2.60;;;;;;;14.21;100.00;100938.88;4898195;29;20172;-75
2023/06/06 03:45:40;;;;;;;9.50;2.58;;;;;;;14.11;100.00;100947.22;4916474;29;20127;-68
2023/06/06 03:48:06;;;;;;;6.60;2.70;;;;;;;13.67;100.00;100877.53;4916197;29;20028;-68
2023/06/06 03:50:32;;;;;;;12.80;2.92;;;;;;;13.59;100.00;100879.91;4916263;29;20118;-69
2023/06/06 03:52:58;;;;;;;5.85;2.40;;;;;;;13.61;100.00;100896.41;4916254;29;20599;-70
2023/06/06 03:55:23;;;;;;;7.13;2.85;;;;;;;13.86;100.00;100947.34;4916276;29;20032;-71
2023/06/06 03:57:50;;;;;;;5.20;2.60;;;;;;;13.91;100.00;100945.78;4921114;29;20054;-70
2023/06/06 04:00:17;;;;;;;7.72;2.65;;;;;;;13.84;100.00;100920.44;4905105;29;20044;-71
2023/06/06 04:02:46;;;;;;;7.65;2.78;;;;;;;13.97;100.00;100937.31;4913618;29;20039;-71
2023/06/06 04:05:13;;;;;;;8.60;2.80;;;;;;;14.04;100.00;100934.06;4897231;29;20033;-69
2023/06/06 04:07:38;;;;;;;6.25;2.80;;;;;;;14.14;100.00;100935.19;4896976;29;20029;-69
2023/06/06 04:10:05;;;;;;;5.93;3.17;;;;;;;13.75;100.00;100856.19;4896937;29;20411;-72
2023/06/06 04:12:30;;;;;;;5.82;2.38;;;;;;;13.79;100.00;100848.50;4896323;29;20513;-70
2023/06/06 04:14:56;;;;;;;8.05;3.00;;;;;;;14.36;100.00;100946.22;4914720;29;20063;-70
2023/06/06 04:17:24;;;;;;;6.22;3.10;;;;;;;14.43;100.00;100953.38;4915509;29;20055;-69
2023/06/06 04:19:52;;;;;;;6.65;2.97;;;;;;;14.33;100.00;100915.84;4915635;29;20040;-71
2023/06/06 04:22:19;;;;;;;6.10;3.40;;;;;;;14.52;100.00;100947.56;4914929;29;20028;-71
2023/06/06 04:24:46;;;;;;;7.05;2.80;;;;;;;14.45;100.00;100945.63;4915387;29;20032;-72
2023/06/06 04:27:12;;;;;;;6.25;3.20;;;;;;;14.28;100.00;100935.63;4915525;29;20032;-72
2023/06/06 04:29:40;;;;;;;8.45;2.78;;;;;;;13.88;100.00;100864.34;4914657;29;20032;-74
2023/06/06 04:32:08;;;;;;;12.47;3.30;;;;;;;14.08;100.00;100891.78;4915407;29;20035;-71
2023/06/06 04:34:35;;;;;;;9.18;3.30;;;;;;;14.49;100.00;100955.25;4914531;29;20029;-69
2023/06/06 04:37:04;;;;;;;6.75;3.38;;;;;;;14.48;100.00;100956.09;4914769;29;20161;-72
2023/06/06 04:39:36;;;;;;;12.65;3.30;;;;;;;14.68;100.00;100965.38;4914732;29;20174;-71
2023/06/06 04:42:04;;;;;;;10.43;3.25;;;;;;;14.82;100.00;100963.16;4914625;29;20040;-72
2023/06/06 04:44:31;;;;;;;7.50;2.97;;;;;;;14.81;100.00;100939.72;4914393;29;20036;-71
2023/06/06 04:47:00;;;;;;;6.88;3.15;;;;;;;14.95;100.00;100968.69;4914352;29;20103;-71
2023/06/06 04:49:27;;;;;;;13.38;3.55;;;;;;;14.95;100.00;100969.56;4915376;29;20042;-71
2023/06/06 04:51:53;;;;;;;7.63;2.95;;;;;;;15.07;100.00;100974.22;4914679;29;20108;-75
2023/06/06 04:54:19;;;;;;;8.32;3.10;;;;;;;15.16;100.00;100978.78;4915206;29;20036;-70
2023/06/06 04:56:45;;;;;;;10.98;3.28;;;;;;;15.18;100.00;100962.38;4916516;29;20061;-74
2023/06/06 04:59:10;;;;;;;7.00;2.85;;;;;;;15.41;100.00;100975.06;4914979;29;20056;-71
2023/06/06 05:01:36;;;;;;;7.07;3.03;;;;;;;15.52;100.00;100973.63;4914928;29;20028;-71
2023/06/06 05:04:03;;;;;;;8.05;3.22;;;;;;;15.27;100.00;100914.91;4915083;29;20071;-70
2023/06/06 05:06:33;;;;;;;11.82;3.60;;;;;;;15.67;100.00;100967.03;4913156;29;20028;-75
2023/06/06 05:09:04;;;;;;;7.38;3.50;;;;;;;15.80;100.00;100978.63;4904255;29;20056;-71
2023/06/06 05:11:30;;;;;;;7.18;3.08;;;;;;;15.53;100.00;100927.69;4896151;29;20041;-70
2023/06/06 05:13:55;;;;;;;8.07;3.40;;;;;;;15.81;100.00;100964.75;4912336;29;20047;-71
2023/06/06 05:16:21;;;;;;;4.63;2.80;;;;;;;15.60;100.00;100918.28;4911222;29;20501;-70
2023/06/06 05:18:47;;;;;;;5.65;2.95;;;;;;;16.10;100.00;100991.53;4913571;29;20083;-70
2023/06/06 05:21:14;;;;;;;11.57;3.25;;;;;;;15.73;100.00;100903.84;4896532;29;20031;-72
2023/06/06 05:23:39;;;;;;;12.50;3.60;;;;;;;16.15;100.00;100989.03;4913754;29;20064;-72
2023/06/06 05:26:05;;;;;;;8.68;3.47;;;;;;;16.01;100.00;100989.59;4913925;29;20083;-72
2023/06/06 05:28:30;;;;;;;7.57;3.17;;;;;;;16.10;100.00;100990.63;4912884;29;20027;-72
2023/06/06 05:30:56;;;;;;;15.52;4.63;;;;;;;16.15;100.00;100996.84;4913106;29;20068;-72
2023/06/06 05:33:27;;;;;;;11.27;4.07;;;;;;;15.99;100.00;100961.75;4913874;29;20032;-71
2023/06/06 05:35:53;;;;;;;11.68;3.55;;;;;;;16.13;100.00;100993.31;4904732;29;20119;-74
2023/06/06 05:38:19;;;;;;;10.60;4.03;;;;;;;16.00;100.00;100977.41;4911710;29;20118;-72
2023/06/06 05:40:45;;;;;;;9.20;3.67;;;;;;;16.01;100.00;100993.91;4891681;29;20067;-75
2023/06/06 05:43:13;;;;;;;12.45;3.40;;;;;;;16.09;100.00;100991.50;4908522;29;20485;-73
2023/06/06 05:45:38;;;;;;;16.08;3.72;;;;;;;16.23;100.00;100995.28;4910666;29;20021;-73
2023/06/06 05:48:04;;;;;;;8.52;2.83;;;;;;;16.47;100.00;100986.22;4910714;29;20035;-72
2023/06/06 05:50:30;;;;;;;9.93;3.17;;;;;;;16.56;100.00;100991.63;4912463;29;20091;-74
2023/06/06 05:52:55;;;;;;;10.00;3.20;;;;;;;16.74;100.00;100993.72;4913775;29;20419;-70
2023/06/06 05:55:34;;;;;;;11.07;2.70;;;;;;;16.91;100.00;100981.06;4911980;29;20074;-72
2023/06/06 05:58:01;;;;;;;13.32;3.20;;;;;;;16.54;100.00;100911.66;4895451;29;20060;-72
2023/06/06 06:00:29;;;;;;;10.52;3.40;;;;;;;17.05;100.00;100978.72;4911214;29;20032;-71
2023/06/06 06:02:58;;;;;;;12.35;3.13;;;;;;;17.07;100.00;100970.91;4912079;29;20036;-71
2023/06/06 06:05:28;;;;;;;8.07;2.72;;;;;;;17.28;99.92;100978.22;4896298;29;20383;-75
2023/06/06 06:07:59;;;;;;;8.07;2.75;;;;;;;17.48;97.94;100989.00;4913202;29;20067;-70
2023/06/06 06:10:30;;;;;;;6.57;2.70;;;;;;;17.67;99.28;100987.59;4913307;29;20024;-75
2023/06/06 06:12:55;;;;;;;9.00;3.03;;;;;;;17.81;97.02;100986.91;4913074;29;20123;-72
2023/06/06 06:15:21;;;;;;;6.63;2.70;;;;;;;17.70;95.62;100955.44;4913100;29;20036;-71
2023/06/06 06:17:47;;;;;;;9.23;2.78;;;;;;;18.07;94.55;100990.84;4896365;29;20036;-69
2023/06/06 06:20:14;;;;;;;6.47;2.70;;;;;;;18.18;95.02;100987.50;4913215;29;20506;-72
2023/06/06 06:22:40;;;;;;;7.82;2.58;;;;;;;18.11;95.81;100986.56;4896263;29;20442;-73
2023/06/06 06:25:12;;;;;;;5.85;2.40;;;;;;;18.10;93.21;100956.91;4913112;29;20028;-73
2023/06/06 06:27:39;;;;;;;8.35;2.50;;;;;;;18.33;92.48;100979.88;4895720;29;20143;-75
2023/06/06 06:30:07;;;;;;;8.85;2.42;;;;;;;18.47;92.39;100969.59;4913165;29;20032;-72
2023/06/06 06:32:35;;;;;;;5.55;2.50;;;;;;;18.55;91.75;100961.84;4913357;29;20032;-70
2023/06/06 06:35:02;;;;;;;9.93;2.47;;;;;;;18.61;91.55;100955.81;4910766;29;20020;-70
2023/06/06 06:37:30;;;;;;;6.13;2.25;;;;;;;18.77;89.38;100965.59;4913194;29;20038;-72
2023/06/06 06:39:57;;;;;;;5.50;2.17;;;;;;;18.83;91.35;100959.53;4912788;29;20508;-72
2023/06/06 06:42:22;;;;;;;7.30;2.17;;;;;;;18.90;89.29;100962.28;4912865;29;20114;-72
2023/06/06 06:44:48;;;;;;;13.75;2.80;;;;;;;18.97;89.92;100962.34;4912815;29;20136;-70
2023/06/06 06:47:14;;;;;;;5.50;2.00;;;;;;;18.43;84.80;100852.78;4912742;29;20043;-74
2023/06/06 06:49:40;;;;;;;4.93;2.13;;;;;;;19.17;86.10;100973.00;4912697;29;20027;-71
2023/06/06 06:52:07;;;;;;;7.78;2.20;;;;;;;19.17;82.92;100971.25;4913732;29;20028;-69
2023/06/06 06:54:35;;;;;;;6.10;2.45;;;;;;;19.22;87.11;100969.56;4896747;29;20024;-71
2023/06/06 06:57:02;;;;;;;5.90;2.67;;;;;;;19.24;87.34;100967.84;4913293;29;20115;-71
2023/06/06 06:59:28;;;;;;;4.15;2.20;;;;;;;19.36;86.43;100956.59;4900062;29;20047;-71
2023/06/06 07:01:54;;;;;;;5.97;2.20;;;;;;;19.50;84.13;100961.97;4917104;29;20388;-71
2023/06/06 07:04:20;;;;;;;6.05;2.20;;;;;;;19.48;85.50;100961.06;4916973;29;20039;-71
2023/06/06 07:06:46;;;;;;;6.20;2.25;;;;;;;19.52;83.48;100947.13;4917240;29;20024;-70
2023/06/06 07:09:13;;;;;;;4.97;2.20;;;;;;;19.73;81.61;100964.75;4899762;29;20040;-70
2023/06/06 07:11:38;;;;;;;5.05;2.55;;;;;;;19.69;81.96;100952.50;4916552;29;20411;-70
2023/06/06 07:14:04;;;;;;;7.95;2.55;;;;;;;19.81;79.55;100972.69;4899943;29;20032;-70
2023/06/06 07:16:31;;;;;;;5.00;2.13;;;;;;;19.67;78.75;100924.53;4916849;29;20032;-74
2023/06/06 07:18:57;;;;;;;4.53;2.22;;;;;;;19.90;79.11;100968.38;4916951;29;20036;-71
2023/06/06 07:21:22;;;;;;;5.75;2.00;;;;;;;19.96;78.61;100969.31;4916624;29;20086;-72
2023/06/06 07:23:48;;;;;;;4.65;2.05;;;;;;;20.10;76.23;100978.97;4916565;29;20111;-74
2023/06/06 07:26:18;;;;;;;7.00;2.17;;;;;;;19.84;78.62;100922.94;4916464;29;20115;-70
2023/06/06 07:28:45;;;;;;;4.68;2.08;;;;;;;20.22;76.34;100965.06;4922738;29;20056;-71
2023/06/06 07:31:10;;;;;;;5.60;2.28;;;;;;;20.22;77.11;100968.56;4918585;29;20027;-69
2023/06/06 07:33:36;;;;;;;5.22;2.13;;;;;;;20.32;77.32;100966.88;4918407;29;20042;-70
2023/06/06 07:36:02;;;;;;;4.07;2.03;;;;;;;19.97;75.06;100900.28;4935203;29;20035;-69
2023/06/06 07:38:28;;;;;;;8.23;2.55;;;;;;;20.40;75.49;100951.16;4934602;29;20023;-71
2023/06/06 07:40:53;;;;;;;7.38;2.40;;;;;;;20.53;78.98;100969.56;4935436;29;20024;-71
2023/06/06 07:43:19;;;;;;;4.13;2.20;;;;;;;20.66;77.28;100954.78;4919807;29;20410;-70
2023/06/06 07:45:45;;;;;;;3.50;1.80;;;;;;;20.70;75.34;100945.16;4915824;29;20103;-71
2023/06/06 07:48:10;;;;;;;4.50;2.20;;;;;;;20.79;76.53;100950.44;4915855;29;20098;-71
2023/06/06 07:50:36;;;;;;;9.70;3.05;;;;;;;20.69;79.58;100939.00;4913128;29;20036;-71
2023/06/06 07:53:01;;;;;;;5.50;2.50;;;;;;;20.30;78.99;100888.22;4913641;29;20070;-72
2023/06/06 07:55:28;;;;;;;6.85;2.63;;;;;;;20.35;76.48;100894.34;4913301;29;20024;-72
2023/06/06 07:57:56;;;;;;;4.25;2.00;;;;;;;20.84;77.10;100951.34;4912852;29;20509;-70
2023/06/06 08:00:23;;;;;;;6.30;2.42;;;;;;;20.63;75.51;100890.91;4913058;29;20107;-71
2023/06/06 08:02:48;;;;;;;5.43;2.30;;;;;;;20.59;73.96;100882.16;4866950;29;20051;-71
2023/06/06 08:05:16;;;;;;;5.90;2.35;;;;;;;21.11;74.99;100956.63;4898955;29;20383;-70
2023/06/06 08:07:41;;;;;;;6.72;2.40;;;;;;;21.08;77.53;100956.63;4912726;29;20063;-71
2023/06/06 08:10:08;;;;;;;6.88;2.30;;;;;;;21.12;74.29;100955.75;4915102;29;20471;-77
2023/06/06 08:12:34;;;;;;;5.05;2.00;;;;;;;21.20;70.28;100947.88;4915451;29;20032;-70
2023/06/06 08:15:00;;;;;;;4.85;2.15;;;;;;;21.04;73.76;100926.00;4915395;29;20024;-70
2023/06/06 08:17:26;;;;;;;8.32;2.95;;;;;;;21.06;74.40;100930.38;4914879;29;20128;-71
2023/06/06 08:19:51;;;;;;;5.60;2.50;;;;;;;21.23;75.08;100940.88;4912570;29;20486;-70
2023/06/06 08:22:18;;;;;;;9.07;2.20;;;;;;;21.39;77.88;100944.38;4915232;29;20083;-72
2023/06/06 08:24:44;;;;;;;5.60;2.53;;;;;;;21.52;73.10;100942.66;4915376;29;20024;-75
2023/06/06 08:27:10;;;;;;;6.60;2.58;;;;;;;21.57;71.40;100937.41;4914725;29;20027;-72
2023/06/06 08:29:36;;;;;;;4.90;2.20;;;;;;;21.63;72.99;100940.91;4914641;29;20443;-72
2023/06/06 08:32:02;;;;;;;5.68;2.38;;;;;;;21.66;73.66;100929.53;4914655;29;20023;-71
2023/06/06 08:34:30;;;;;;;5.95;2.35;;;;;;;21.70;69.15;100925.16;4915233;29;20024;-74
2023/06/06 08:36:56;;;;;;;5.45;2.63;;;;;;;21.48;70.77;100906.72;4914616;29;20050;-71
2023/06/06 08:39:21;;;;;;;8.73;2.67;;;;;;;21.77;68.18;100930.38;4915025;29;20547;-70
2023/06/06 08:41:51;;;;;;;10.00;2.47;;;;;;;21.94;71.81;100927.72;4914560;29;20024;-70
2023/06/06 08:44:21;;;;;;;6.25;2.53;;;;;;;21.96;68.45;100912.81;4914367;29;20036;-71
2023/06/06 08:46:51;;;;;;;4.82;2.30;;;;;;;22.13;67.31;100923.28;4914657;29;20057;-71
2023/06/06 08:49:20;;;;;;;3.05;1.83;;;;;;;22.12;65.94;100892.59;4914639;29;20042;-71
2023/06/06 08:51:50;;;;;;;5.50;2.53;;;;;;;22.31;66.23;100900.41;4914721;29;20040;-69
2023/06/06 08:54:20;;;;;;;7.05;2.05;;;;;;;22.12;69.41;100840.00;4896712;29;20486;-71
2023/06/06 08:56:46;;;;;;;5.55;2.50;;;;;;;22.69;68.62;100909.00;4897028;29;20411;-71
2023/06/06 08:59:13;;;;;;;5.65;2.45;;;;;;;22.72;70.68;100883.53;4914186;29;20055;-71
2023/06/06 09:01:39;;;;;;;6.85;2.20;;;;;;;22.77;66.20;100881.75;4913522;29;20099;-72
2023/06/06 09:04:06;;;;;;;8.80;2.35;;;;;;;22.97;67.27;100898.25;4913676;29;20112;-74
2023/06/06 09:06:43;;;;;;;6.13;2.50;;;;;;;23.12;69.19;100900.78;4913579;29;20032;-72
2023/06/06 09:09:12;;;;;;;4.75;2.08;;;;;;;23.17;64.68;100879.72;4913280;29;20474;-70
2023/06/06 09:11:38;;;;;;;5.13;2.38;;;;;;;23.02;62.97;100868.38;4913580;29;20036;-69
2023/06/06 09:14:05;;;;;;;4.15;2.05;;;;;;;22.64;67.14;100801.13;4906733;29;20028;-69
2023/06/06 09:16:31;;;;;;;5.82;2.13;;;;;;;23.16;66.01;100872.72;4913782;29;20059;-70
2023/06/06 09:18:57;;;;;;;6.65;2.22;;;;;;;23.34;65.76;100875.19;4914086;29;20056;-72
2023/06/06 09:21:32;;;;;;;5.75;2.40;;;;;;;23.45;65.15;100868.91;4913217;29;20066;-70
2023/06/06 09:23:57;;;;;;;6.70;2.42;;;;;;;23.59;65.98;100861.75;4897148;29;20119;-71
2023/06/06 09:26:23;;;;;;;12.95;2.63;;;;;;;23.72;63.65;100871.25;4913920;29;20606;-70
2023/06/06 09:28:49;;;;;;;6.03;2.58;;;;;;;23.31;61.22;100795.28;4914070;29;20395;-72
2023/06/06 09:31:30;;;;;;;4.72;2.47;;;;;;;23.86;59.19;100870.22;4895947;29;20092;-70
2023/06/06 09:33:58;;;;;;;8.95;2.45;;;;;;;23.64;58.63;100804.59;4913136;29;20031;-71
2023/06/06 09:36:27;;;;;;;5.15;2.60;;;;;;;24.14;58.50;100856.72;4913852;29;20035;-71
2023/06/06 09:38:55;;;;;;;5.90;2.58;;;;;;;23.64;55.00;100751.88;4913736;29;20039;-73
2023/06/06 09:41:21;;;;;;;4.82;2.42;;;;;;;24.37;58.06;100867.84;4913517;29;20494;-70
2023/06/06 09:43:47;;;;;;;7.57;2.65;;;;;;;23.99;57.93;100798.03;4913633;29;20028;-73
2023/06/06 09:46:17;;;;;;;4.78;2.60;;;;;;;24.43;59.52;100856.31;4912737;29;20032;-71
2023/06/06 09:48:53;;;;;;;7.07;3.03;;;;;;;24.54;58.36;100851.75;4913455;29;20034;-69
2023/06/06 09:51:19;;;;;;;9.32;3.75;;;;;;;24.53;56.18;100855.28;4910030;29;20099;-70
2023/06/06 09:53:50;;;;;;;9.90;2.95;;;;;;;24.66;57.50;100856.03;4912638;29;20040;-71
2023/06/06 09:56:21;;;;;;;5.07;2.10;;;;;;;24.83;56.32;100853.09;4912921;29;20486;-69
2023/06/06 09:58:53;;;;;;;6.07;2.20;;;;;;;24.93;55.97;100856.47;4913170;29;20068;-70
2023/06/06 10:01:23;;;;;;;5.88;2.60;;;;;;;25.11;54.10;100847.38;4896175;29;20035;-71
2023/06/06 10:03:50;;;;;;;11.52;3.03;;;;;;;24.99;57.28;100794.75;4911531;29;20115;-72
2023/06/06 10:06:18;;;;;;;6.85;3.00;;;;;;;25.39;56.03;100838.13;4913408;29;20027;-69
2023/06/06 10:08:45;;;;;;;5.35;2.78;;;;;;;25.45;58.09;100844.16;4912855;29;20487;-70
2023/06/06 10:11:11;;;;;;;5.82;3.10;;;;;;;25.45;54.04;100816.84;4896243;29;20118;-69
2023/06/06 10:13:37;;;;;;;4.28;2.88;;;;;;;25.61;54.39;100828.84;4913151;29;20115;-69
2023/06/06 10:16:04;;;;;;;5.03;2.60;;;;;;;25.81;57.30;100831.09;4913208;29;20471;-71
2023/06/06 10:18:30;;;;;;;6.38;2.67;;;;;;;25.87;53.50;100821.28;4914762;29;20525;-72
2023/06/06 10:20:56;;;;;;;5.45;2.95;;;;;;;25.78;55.20;100798.53;4916921;29;20076;-68
2023/06/06 10:23:22;;;;;;;7.35;3.15;;;;;;;25.98;54.37;100812.22;4913294;29;20039;-69
2023/06/06 10:25:48;;;;;;;6.88;3.17;;;;;;;25.80;58.15;100750.00;4912969;29;20024;-71
2023/06/06 10:28:28;;;;;;;10.70;3.50;;;;;;;26.34;55.71;100807.94;4913470;29;20032;-72
2023/06/06 10:31:03;;;;;;;11.23;2.90;;;;;;;26.47;51.07;100798.81;4912851;29;20475;-67
2023/06/06 10:33:42;;;;;;;5.72;3.00;;;;;;;26.54;55.64;100804.81;4915159;29;20096;-69
2023/06/06 10:36:13;;;;;;;7.13;3.15;;;;;;;26.32;53.91;100761.22;4916894;29;20035;-73
2023/06/06 10:38:39;;;;;;;5.78;2.83;;;;;;;26.70;53.71;100811.47;4922993;29;20048;-70
2023/06/06 10:41:22;;;;;;;5.95;3.10;;;;;;;26.88;51.48;100788.09;4916637;29;20092;-70
2023/06/06 10:43:47;;;;;;;8.52;3.00;;;;;;;26.99;50.21;100796.66;4916524;29;20526;-70
2023/06/06 10:46:14;;;;;;;6.47;2.80;;;;;;;26.60;50.32;100733.19;4916436;29;20060;-68
2023/06/06 10:48:48;;;;;;;7.00;2.90;;;;;;;27.06;51.30;100789.41;4915138;29;20139;-71
2023/06/06 10:51:23;;;;;;;7.97;3.13;;;;;;;27.15;51.09;100778.56;4897105;29;20166;-70
2023/06/06 10:54:21;;;;;;;5.60;2.60;;;;;;;27.18;52.01;100778.50;4914906;29;20087;-69
2023/06/06 10:56:55;;;;;;;8.30;2.92;;;;;;;27.29;50.87;100773.75;4914599;29;20068;-73
2023/06/06 10:59:22;;;;;;;10.45;3.22;;;;;;;27.45;51.65;100768.03;4913963;29;20056;-68
2023/06/06 11:01:49;;;;;;;4.90;2.63;;;;;;;27.42;50.17;100779.59;4916331;29;20052;-68
2023/06/06 11:04:19;;;;;;;6.75;2.92;;;;;;;27.39;46.06;100736.38;4916804;29;20028;-72
2023/06/06 11:06:46;;;;;;;4.00;2.90;;;;;;;27.73;45.87;100761.94;4915480;29;20067;-70
2023/06/06 11:09:20;;;;;;;7.80;2.80;;;;;;;27.89;46.66;100757.91;4898798;29;20111;-69
2023/06/06 11:11:46;;;;;;;4.85;2.75;;;;;;;27.47;47.97;100760.06;4916388;29;20111;-71
2023/06/06 11:14:11;;;;;;;7.55;2.67;;;;;;;27.21;50.80;100756.34;4916544;29;20099;-71
2023/06/06 11:16:40;;;;;;;6.30;3.30;;;;;;;27.36;47.57;100744.44;4914418;29;20036;-70
2023/06/06 11:19:09;;;;;;;5.57;2.97;;;;;;;26.91;46.52;100692.69;4911591;29;20048;-73
2023/06/06 11:21:35;;;;;;;;;;;;;;;27.00;47.91;100753.34;4916567;29;20032;-71
2023/06/06 11:24:02;;;;;;;5.45;2.95;;;;;;;27.00;47.35;100752.50;4915960;29;20313;-71